sensor_id;sensor_type;location;lat;lon;timestamp;P1;durP1;ratioP1;P2;durP2;ratioP2
11269;SDS011;5692;48.956;9.200;2022-10-28T00:00:31;180.05;;;171.45;;
11269;SDS011;5692;48.956;9.200;2022-10-28T00:03:03;174.55;;;166.20;;
11269;SDS011;5692;48.956;9.200;2022-10-28T00:05:32;167.05;;;159.02;;
11269;SDS011;5692;48.956;9.200;2022-10-28T00:08:01;150.45;;;143.25;;
11269;SDS011;5692;48.956;9.200;2022-10-28T00:10:27;160.88;;;153.18;;
11269;SDS011;5692;48.956;9.200;2022-10-28T00:12:56;155.75;;;148.25;;
11269;SDS011;5692;48.956;9.200;2022-10-28T00:15:24;155.70;;;148.23;;
11269;SDS011;5692;48.956;9.200;2022-10-28T00:17:50;170.15;;;162.00;;
11269;SDS011;5692;48.956;9.200;2022-10-28T00:20:18;168.60;;;160.50;;
11269;SDS011;5692;48.956;9.200;2022-10-28T00:22:47;166.70;;;158.70;;
11269;SDS011;5692;48.956;9.200;2022-10-28T00:25:13;159.18;;;151.57;;
11269;SDS011;5692;48.956;9.200;2022-10-28T00:27:39;168.13;;;160.05;;
11269;SDS011;5692;48.956;9.200;2022-10-28T00:30:10;173.05;;;164.75;;
11269;SDS011;5692;48.956;9.200;2022-10-28T00:32:36;161.45;;;153.70;;
11269;SDS011;5692;48.956;9.200;2022-10-28T00:35:02;168.77;;;160.70;;
11269;SDS011;5692;48.956;9.200;2022-10-28T00:37:29;164.48;;;156.60;;
11269;SDS011;5692;48.956;9.200;2022-10-28T00:39:55;170.82;;;162.65;;
11269;SDS011;5692;48.956;9.200;2022-10-28T00:42:21;178.40;;;169.85;;
11269;SDS011;5692;48.956;9.200;2022-10-28T00:49:51;166.55;;;158.55;;
11269;SDS011;5692;48.956;9.200;2022-10-28T00:52:20;164.15;;;156.27;;
11269;SDS011;5692;48.956;9.200;2022-10-28T00:54:47;169.55;;;161.43;;
11269;SDS011;5692;48.956;9.200;2022-10-28T00:57:15;166.88;;;158.88;;
11269;SDS011;5692;48.956;9.200;2022-10-28T00:59:46;168.40;;;160.35;;
11269;SDS011;5692;48.956;9.200;2022-10-28T01:02:13;166.70;;;158.70;;
11269;SDS011;5692;48.956;9.200;2022-10-28T01:04:39;174.75;;;166.35;;
11269;SDS011;5692;48.956;9.200;2022-10-28T01:07:05;174.55;;;166.15;;
11269;SDS011;5692;48.956;9.200;2022-10-28T01:09:34;160.52;;;152.82;;
11269;SDS011;5692;48.956;9.200;2022-10-28T01:20:02;164.73;;;156.82;;
11269;SDS011;5692;48.956;9.200;2022-10-28T01:30:18;173.13;;;164.82;;
11269;SDS011;5692;48.956;9.200;2022-10-28T01:38:36;170.38;;;162.18;;
11269;SDS011;5692;48.956;9.200;2022-10-28T01:40:41;172.07;;;163.82;;
11269;SDS011;5692;48.956;9.200;2022-10-28T01:45:44;165.40;;;157.50;;
11269;SDS011;5692;48.956;9.200;2022-10-28T01:48:14;167.98;;;159.93;;
11269;SDS011;5692;48.956;9.200;2022-10-28T01:50:47;171.05;;;162.85;;
11269;SDS011;5692;48.956;9.200;2022-10-28T01:53:17;174.55;;;166.20;;
11269;SDS011;5692;48.956;9.200;2022-10-28T01:55:46;182.35;;;173.60;;
11269;SDS011;5692;48.956;9.200;2022-10-28T01:58:14;172.63;;;164.35;;
11269;SDS011;5692;48.956;9.200;2022-10-28T02:00:45;171.30;;;163.10;;
11269;SDS011;5692;48.956;9.200;2022-10-28T02:03:11;179.18;;;170.57;;
11269;SDS011;5692;48.956;9.200;2022-10-28T02:05:53;164.38;;;156.48;;
11269;SDS011;5692;48.956;9.200;2022-10-28T02:08:36;164.32;;;156.45;;
11269;SDS011;5692;48.956;9.200;2022-10-28T02:21:45;175.30;;;166.90;;
11269;SDS011;5692;48.956;9.200;2022-10-28T02:26:38;162.45;;;154.65;;
11269;SDS011;5692;48.956;9.200;2022-10-28T02:32:24;175.18;;;166.77;;
11269;SDS011;5692;48.956;9.200;2022-10-28T02:34:25;165.88;;;157.93;;
11269;SDS011;5692;48.956;9.200;2022-10-28T02:36:53;169.07;;;160.98;;
11269;SDS011;5692;48.956;9.200;2022-10-28T02:39:21;167.70;;;159.68;;
11269;SDS011;5692;48.956;9.200;2022-10-28T02:41:53;170.02;;;161.88;;
11269;SDS011;5692;48.956;9.200;2022-10-28T02:44:21;169.02;;;160.93;;
11269;SDS011;5692;48.956;9.200;2022-10-28T02:46:48;168.90;;;160.80;;
11269;SDS011;5692;48.956;9.200;2022-10-28T02:49:17;177.48;;;168.98;;
11269;SDS011;5692;48.956;9.200;2022-10-28T02:51:54;167.60;;;159.60;;
11269;SDS011;5692;48.956;9.200;2022-10-28T02:54:26;167.25;;;159.23;;
11269;SDS011;5692;48.956;9.200;2022-10-28T02:56:58;154.88;;;147.48;;
11269;SDS011;5692;48.956;9.200;2022-10-28T02:59:29;158.52;;;150.93;;
11269;SDS011;5692;48.956;9.200;2022-10-28T03:01:55;150.25;;;143.05;;
11269;SDS011;5692;48.956;9.200;2022-10-28T03:04:21;152.05;;;144.75;;
11269;SDS011;5692;48.956;9.200;2022-10-28T03:06:53;148.32;;;141.23;;
11269;SDS011;5692;48.956;9.200;2022-10-28T03:09:19;160.55;;;152.85;;
11269;SDS011;5692;48.956;9.200;2022-10-28T03:11:48;157.55;;;149.98;;
11269;SDS011;5692;48.956;9.200;2022-10-28T03:14:14;149.95;;;142.75;;
11269;SDS011;5692;48.956;9.200;2022-10-28T03:16:40;159.73;;;152.05;;
11269;SDS011;5692;48.956;9.200;2022-10-28T03:19:06;168.63;;;160.52;;
11269;SDS011;5692;48.956;9.200;2022-10-28T03:21:35;170.75;;;162.57;;
11269;SDS011;5692;48.956;9.200;2022-10-28T03:24:01;164.45;;;156.55;;
11269;SDS011;5692;48.956;9.200;2022-10-28T03:26:36;167.65;;;159.63;;
11269;SDS011;5692;48.956;9.200;2022-10-28T03:29:02;161.50;;;153.77;;
11269;SDS011;5692;48.956;9.200;2022-10-28T03:31:34;168.60;;;160.50;;
11269;SDS011;5692;48.956;9.200;2022-10-28T03:34:00;164.65;;;156.75;;
11269;SDS011;5692;48.956;9.200;2022-10-28T03:36:29;159.68;;;152.02;;
11269;SDS011;5692;48.956;9.200;2022-10-28T03:38:57;168.23;;;160.18;;
11269;SDS011;5692;48.956;9.200;2022-10-28T03:41:26;168.18;;;160.10;;
11269;SDS011;5692;48.956;9.200;2022-10-28T03:43:52;163.88;;;156.00;;
11269;SDS011;5692;48.956;9.200;2022-10-28T03:46:18;182.85;;;174.10;;
11269;SDS011;5692;48.956;9.200;2022-10-28T03:48:44;171.20;;;163.00;;
11269;SDS011;5692;48.956;9.200;2022-10-28T03:51:10;154.50;;;147.10;;
11269;SDS011;5692;48.956;9.200;2022-10-28T03:53:36;156.10;;;148.60;;
11269;SDS011;5692;48.956;9.200;2022-10-28T03:56:02;163.50;;;155.65;;
11269;SDS011;5692;48.956;9.200;2022-10-28T03:58:32;160.93;;;153.23;;
11269;SDS011;5692;48.956;9.200;2022-10-28T04:01:01;176.55;;;168.05;;
11269;SDS011;5692;48.956;9.200;2022-10-28T04:03:27;163.00;;;155.20;;
11269;SDS011;5692;48.956;9.200;2022-10-28T04:05:53;146.43;;;139.43;;
11269;SDS011;5692;48.956;9.200;2022-10-28T04:08:19;152.23;;;144.93;;
11269;SDS011;5692;48.956;9.200;2022-10-28T04:10:48;154.18;;;146.77;;
11269;SDS011;5692;48.956;9.200;2022-10-28T04:13:20;168.43;;;160.35;;
11269;SDS011;5692;48.956;9.200;2022-10-28T04:15:46;160.98;;;153.27;;
11269;SDS011;5692;48.956;9.200;2022-10-28T04:18:15;177.18;;;168.68;;
11269;SDS011;5692;48.956;9.200;2022-10-28T04:20:44;166.32;;;158.32;;
11269;SDS011;5692;48.956;9.200;2022-10-28T04:23:14;160.55;;;152.85;;
11269;SDS011;5692;48.956;9.200;2022-10-28T04:25:42;161.55;;;153.80;;
11269;SDS011;5692;48.956;9.200;2022-10-28T04:28:11;150.32;;;143.13;;
11269;SDS011;5692;48.956;9.200;2022-10-28T04:30:37;151.93;;;144.63;;
11269;SDS011;5692;48.956;9.200;2022-10-28T04:33:03;168.77;;;160.68;;
11269;SDS011;5692;48.956;9.200;2022-10-28T04:35:29;170.73;;;162.52;;
11269;SDS011;5692;48.956;9.200;2022-10-28T04:37:55;176.73;;;168.25;;
11269;SDS011;5692;48.956;9.200;2022-10-28T04:40:27;168.45;;;160.35;;
11269;SDS011;5692;48.956;9.200;2022-10-28T04:42:53;169.80;;;161.65;;
11269;SDS011;5692;48.956;9.200;2022-10-28T04:45:19;171.32;;;163.10;;
11269;SDS011;5692;48.956;9.200;2022-10-28T04:47:45;165.60;;;157.68;;
11269;SDS011;5692;48.956;9.200;2022-10-28T04:50:11;158.70;;;151.10;;
11269;SDS011;5692;48.956;9.200;2022-10-28T04:52:37;159.27;;;151.68;;
11269;SDS011;5692;48.956;9.200;2022-10-28T04:55:03;159.73;;;152.07;;
11269;SDS011;5692;48.956;9.200;2022-10-28T04:57:29;166.88;;;158.88;;
11269;SDS011;5692;48.956;9.200;2022-10-28T04:59:56;159.27;;;151.65;;
11269;SDS011;5692;48.956;9.200;2022-10-28T05:02:23;163.82;;;155.98;;
11269;SDS011;5692;48.956;9.200;2022-10-28T05:04:49;150.27;;;143.07;;
11269;SDS011;5692;48.956;9.200;2022-10-28T05:07:17;170.93;;;162.73;;
11269;SDS011;5692;48.956;9.200;2022-10-28T05:09:43;158.68;;;151.07;;
11269;SDS011;5692;48.956;9.200;2022-10-28T05:12:09;173.38;;;165.07;;
11269;SDS011;5692;48.956;9.200;2022-10-28T05:14:38;151.75;;;144.48;;
11269;SDS011;5692;48.956;9.200;2022-10-28T05:17:07;155.18;;;147.73;;
11269;SDS011;5692;48.956;9.200;2022-10-28T05:19:34;160.20;;;152.50;;
11269;SDS011;5692;48.956;9.200;2022-10-28T05:22:00;155.20;;;147.75;;
11269;SDS011;5692;48.956;9.200;2022-10-28T05:24:29;152.02;;;144.73;;
11269;SDS011;5692;48.956;9.200;2022-10-28T05:26:57;160.85;;;153.15;;
11269;SDS011;5692;48.956;9.200;2022-10-28T05:29:23;162.85;;;155.05;;
11269;SDS011;5692;48.956;9.200;2022-10-28T05:31:49;150.13;;;142.93;;
11269;SDS011;5692;48.956;9.200;2022-10-28T05:34:18;157.23;;;149.70;;
11269;SDS011;5692;48.956;9.200;2022-10-28T05:36:44;152.80;;;145.47;;
11269;SDS011;5692;48.956;9.200;2022-10-28T05:39:16;155.30;;;147.85;;
11269;SDS011;5692;48.956;9.200;2022-10-28T05:41:43;169.85;;;161.75;;
11269;SDS011;5692;48.956;9.200;2022-10-28T05:44:12;144.45;;;137.52;;
11269;SDS011;5692;48.956;9.200;2022-10-28T05:46:40;140.85;;;134.07;;
11269;SDS011;5692;48.956;9.200;2022-10-28T05:49:09;147.90;;;140.80;;
11269;SDS011;5692;48.956;9.200;2022-10-28T05:51:37;156.95;;;149.43;;
11269;SDS011;5692;48.956;9.200;2022-10-28T05:54:06;154.95;;;147.50;;
11269;SDS011;5692;48.956;9.200;2022-10-28T05:56:32;153.00;;;145.68;;
11269;SDS011;5692;48.956;9.200;2022-10-28T05:59:01;173.45;;;165.13;;
11269;SDS011;5692;48.956;9.200;2022-10-28T06:01:30;168.50;;;160.43;;
11269;SDS011;5692;48.956;9.200;2022-10-28T06:03:59;171.40;;;163.20;;
11269;SDS011;5692;48.956;9.200;2022-10-28T06:06:27;171.00;;;162.80;;
11269;SDS011;5692;48.956;9.200;2022-10-28T06:08:56;166.40;;;158.43;;
11269;SDS011;5692;48.956;9.200;2022-10-28T06:11:24;159.57;;;151.93;;
11269;SDS011;5692;48.956;9.200;2022-10-28T06:13:53;164.57;;;156.68;;
11269;SDS011;5692;48.956;9.200;2022-10-28T06:16:19;155.32;;;147.88;;
11269;SDS011;5692;48.956;9.200;2022-10-28T06:18:48;168.75;;;160.65;;
11269;SDS011;5692;48.956;9.200;2022-10-28T06:21:14;163.52;;;155.68;;
11269;SDS011;5692;48.956;9.200;2022-10-28T06:23:40;156.90;;;149.37;;
11269;SDS011;5692;48.956;9.200;2022-10-28T06:26:07;150.48;;;143.27;;
11269;SDS011;5692;48.956;9.200;2022-10-28T06:28:34;156.90;;;149.40;;
11269;SDS011;5692;48.956;9.200;2022-10-28T06:31:06;158.00;;;150.43;;
11269;SDS011;5692;48.956;9.200;2022-10-28T06:33:34;163.02;;;155.23;;
11269;SDS011;5692;48.956;9.200;2022-10-28T06:36:03;155.95;;;148.45;;
11269;SDS011;5692;48.956;9.200;2022-10-28T06:38:29;133.73;;;127.30;;
11269;SDS011;5692;48.956;9.200;2022-10-28T06:40:56;152.63;;;145.32;;
11269;SDS011;5692;48.956;9.200;2022-10-28T06:43:23;149.38;;;142.18;;
11269;SDS011;5692;48.956;9.200;2022-10-28T06:45:52;148.45;;;141.35;;
11269;SDS011;5692;48.956;9.200;2022-10-28T06:48:21;160.55;;;152.85;;
11269;SDS011;5692;48.956;9.200;2022-10-28T06:50:47;146.02;;;139.02;;
11269;SDS011;5692;48.956;9.200;2022-10-28T06:53:13;147.65;;;140.55;;
11269;SDS011;5692;48.956;9.200;2022-10-28T06:55:41;149.10;;;141.95;;
11269;SDS011;5692;48.956;9.200;2022-10-28T06:58:15;149.68;;;142.48;;
11269;SDS011;5692;48.956;9.200;2022-10-28T07:00:41;146.10;;;139.10;;
11269;SDS011;5692;48.956;9.200;2022-10-28T07:03:12;152.23;;;144.93;;
11269;SDS011;5692;48.956;9.200;2022-10-28T07:05:38;151.93;;;144.63;;
11269;SDS011;5692;48.956;9.200;2022-10-28T07:08:05;149.45;;;142.27;;
11269;SDS011;5692;48.956;9.200;2022-10-28T07:10:34;151.32;;;144.07;;
11269;SDS011;5692;48.956;9.200;2022-10-28T07:13:00;165.80;;;157.85;;
11269;SDS011;5692;48.956;9.200;2022-10-28T07:15:28;141.65;;;134.85;;
11269;SDS011;5692;48.956;9.200;2022-10-28T07:17:55;148.00;;;140.90;;
11269;SDS011;5692;48.956;9.200;2022-10-28T07:20:21;160.73;;;153.02;;
11269;SDS011;5692;48.956;9.200;2022-10-28T07:22:50;156.63;;;149.13;;
11269;SDS011;5692;48.956;9.200;2022-10-28T07:25:19;153.43;;;146.05;;
11269;SDS011;5692;48.956;9.200;2022-10-28T07:27:48;149.65;;;142.48;;
11269;SDS011;5692;48.956;9.200;2022-10-28T07:30:14;155.10;;;147.65;;
11269;SDS011;5692;48.956;9.200;2022-10-28T07:32:40;161.48;;;153.77;;
11269;SDS011;5692;48.956;9.200;2022-10-28T07:35:06;157.57;;;150.00;;
11269;SDS011;5692;48.956;9.200;2022-10-28T07:37:32;159.27;;;151.68;;
11269;SDS011;5692;48.956;9.200;2022-10-28T07:39:58;155.60;;;148.10;;
11269;SDS011;5692;48.956;9.200;2022-10-28T07:42:27;159.70;;;152.05;;
11269;SDS011;5692;48.956;9.200;2022-10-28T07:44:55;178.60;;;170.02;;
11269;SDS011;5692;48.956;9.200;2022-10-28T07:47:24;160.15;;;152.48;;
11269;SDS011;5692;48.956;9.200;2022-10-28T07:49:50;165.52;;;157.57;;
11269;SDS011;5692;48.956;9.200;2022-10-28T07:52:18;160.55;;;152.85;;
11269;SDS011;5692;48.956;9.200;2022-10-28T07:54:44;160.68;;;152.98;;
11269;SDS011;5692;48.956;9.200;2022-10-28T07:57:10;170.27;;;162.13;;
11269;SDS011;5692;48.956;9.200;2022-10-28T07:59:36;179.18;;;170.60;;
11269;SDS011;5692;48.956;9.200;2022-10-28T08:02:02;163.02;;;155.20;;
11269;SDS011;5692;48.956;9.200;2022-10-28T08:04:29;194.27;;;184.98;;
11269;SDS011;5692;48.956;9.200;2022-10-28T08:06:55;172.05;;;163.80;;
11269;SDS011;5692;48.956;9.200;2022-10-28T08:09:21;176.63;;;168.18;;
11269;SDS011;5692;48.956;9.200;2022-10-28T08:11:54;184.30;;;175.48;;
11269;SDS011;5692;48.956;9.200;2022-10-28T08:14:21;176.88;;;168.40;;
11269;SDS011;5692;48.956;9.200;2022-10-28T08:16:47;182.40;;;173.68;;
11269;SDS011;5692;48.956;9.200;2022-10-28T08:19:13;161.80;;;154.02;;
11269;SDS011;5692;48.956;9.200;2022-10-28T08:21:39;160.43;;;152.73;;
11269;SDS011;5692;48.956;9.200;2022-10-28T08:24:08;172.45;;;164.20;;
11269;SDS011;5692;48.956;9.200;2022-10-28T08:26:34;176.00;;;167.57;;
11269;SDS011;5692;48.956;9.200;2022-10-28T08:29:00;178.52;;;169.98;;
11269;SDS011;5692;48.956;9.200;2022-10-28T08:31:38;174.48;;;166.10;;
11269;SDS011;5692;48.956;9.200;2022-10-28T08:34:06;173.13;;;164.82;;
11269;SDS011;5692;48.956;9.200;2022-10-28T08:36:37;172.18;;;163.93;;
11269;SDS011;5692;48.956;9.200;2022-10-28T08:39:03;177.20;;;168.73;;
11269;SDS011;5692;48.956;9.200;2022-10-28T08:41:39;179.68;;;171.07;;
11269;SDS011;5692;48.956;9.200;2022-10-28T08:49:25;191.90;;;182.70;;
11269;SDS011;5692;48.956;9.200;2022-10-28T08:54:40;194.45;;;185.15;;
11269;SDS011;5692;48.956;9.200;2022-10-28T08:57:04;192.73;;;183.52;;
11269;SDS011;5692;48.956;9.200;2022-10-28T08:59:35;196.70;;;187.30;;
11269;SDS011;5692;48.956;9.200;2022-10-28T09:02:04;178.90;;;170.32;;
11269;SDS011;5692;48.956;9.200;2022-10-28T09:07:06;193.30;;;184.02;;
11269;SDS011;5692;48.956;9.200;2022-10-28T09:09:36;194.10;;;184.80;;
11269;SDS011;5692;48.956;9.200;2022-10-28T09:12:37;199.98;;;190.38;;
11269;SDS011;5692;48.956;9.200;2022-10-28T09:15:05;201.65;;;192.00;;
11269;SDS011;5692;48.956;9.200;2022-10-28T09:20:19;198.82;;;189.30;;
11269;SDS011;5692;48.956;9.200;2022-10-28T09:25:42;202.18;;;192.50;;
11269;SDS011;5692;48.956;9.200;2022-10-28T09:31:19;204.70;;;194.90;;
11269;SDS011;5692;48.956;9.200;2022-10-28T09:33:54;209.07;;;199.05;;
11269;SDS011;5692;48.956;9.200;2022-10-28T09:36:45;192.57;;;183.38;;
11269;SDS011;5692;48.956;9.200;2022-10-28T09:39:22;192.65;;;183.43;;
11269;SDS011;5692;48.956;9.200;2022-10-28T09:41:52;193.38;;;184.10;;
11269;SDS011;5692;48.956;9.200;2022-10-28T09:44:25;199.00;;;189.48;;
11269;SDS011;5692;48.956;9.200;2022-10-28T09:46:56;200.45;;;190.85;;
11269;SDS011;5692;48.956;9.200;2022-10-28T09:49:23;215.38;;;205.07;;
11269;SDS011;5692;48.956;9.200;2022-10-28T09:54:50;209.80;;;199.75;;
11269;SDS011;5692;48.956;9.200;2022-10-28T09:57:17;214.50;;;204.23;;
11269;SDS011;5692;48.956;9.200;2022-10-28T09:59:46;216.32;;;205.98;;
11269;SDS011;5692;48.956;9.200;2022-10-28T10:02:30;230.90;;;219.85;;
11269;SDS011;5692;48.956;9.200;2022-10-28T10:04:57;226.60;;;215.80;;
11269;SDS011;5692;48.956;9.200;2022-10-28T10:07:32;218.18;;;207.73;;
11269;SDS011;5692;48.956;9.200;2022-10-28T10:10:00;223.52;;;212.82;;
11269;SDS011;5692;48.956;9.200;2022-10-28T10:12:31;245.32;;;233.57;;
11269;SDS011;5692;48.956;9.200;2022-10-28T10:15:01;253.23;;;241.10;;
11269;SDS011;5692;48.956;9.200;2022-10-28T10:17:34;223.45;;;212.75;;
11269;SDS011;5692;48.956;9.200;2022-10-28T10:20:06;237.77;;;226.38;;
11269;SDS011;5692;48.956;9.200;2022-10-28T10:22:33;237.85;;;226.45;;
11269;SDS011;5692;48.956;9.200;2022-10-28T10:25:00;255.00;;;242.80;;
11269;SDS011;5692;48.956;9.200;2022-10-28T10:27:29;251.90;;;239.85;;
11269;SDS011;5692;48.956;9.200;2022-10-28T10:29:56;252.55;;;240.48;;
11269;SDS011;5692;48.956;9.200;2022-10-28T10:32:29;258.23;;;245.88;;
11269;SDS011;5692;48.956;9.200;2022-10-28T10:35:57;240.07;;;228.57;;
11269;SDS011;5692;48.956;9.200;2022-10-28T10:37:51;232.55;;;221.45;;
11269;SDS011;5692;48.956;9.200;2022-10-28T10:40:22;230.60;;;219.57;;
11269;SDS011;5692;48.956;9.200;2022-10-28T10:42:52;263.02;;;250.45;;
11269;SDS011;5692;48.956;9.200;2022-10-28T10:45:20;231.07;;;220.00;;
11269;SDS011;5692;48.956;9.200;2022-10-28T10:47:46;222.82;;;212.13;;
11269;SDS011;5692;48.956;9.200;2022-10-28T10:50:19;215.30;;;205.00;;
11269;SDS011;5692;48.956;9.200;2022-10-28T10:52:56;231.48;;;220.40;;
11269;SDS011;5692;48.956;9.200;2022-10-28T10:55:47;233.68;;;222.48;;
11269;SDS011;5692;48.956;9.200;2022-10-28T10:58:20;238.25;;;226.85;;
11269;SDS011;5692;48.956;9.200;2022-10-28T11:00:49;247.80;;;235.95;;
11269;SDS011;5692;48.956;9.200;2022-10-28T11:03:26;242.73;;;231.13;;
11269;SDS011;5692;48.956;9.200;2022-10-28T11:05:56;230.38;;;219.38;;
11269;SDS011;5692;48.956;9.200;2022-10-28T11:11:02;244.77;;;233.10;;
11269;SDS011;5692;48.956;9.200;2022-10-28T11:13:28;207.02;;;197.13;;
11269;SDS011;5692;48.956;9.200;2022-10-28T11:16:16;220.23;;;209.68;;
11269;SDS011;5692;48.956;9.200;2022-10-28T11:18:43;219.27;;;208.77;;
11269;SDS011;5692;48.956;9.200;2022-10-28T11:21:13;233.93;;;222.73;;
11269;SDS011;5692;48.956;9.200;2022-10-28T11:26:08;241.95;;;230.38;;
11269;SDS011;5692;48.956;9.200;2022-10-28T11:31:18;225.85;;;215.02;;
11269;SDS011;5692;48.956;9.200;2022-10-28T11:39:07;244.32;;;232.65;;
11269;SDS011;5692;48.956;9.200;2022-10-28T11:41:39;238.18;;;226.77;;
11269;SDS011;5692;48.956;9.200;2022-10-28T11:44:17;240.90;;;229.40;;
11269;SDS011;5692;48.956;9.200;2022-10-28T11:57:53;227.60;;;216.70;;
11269;SDS011;5692;48.956;9.200;2022-10-28T12:03:18;228.38;;;217.48;;
11269;SDS011;5692;48.956;9.200;2022-10-28T12:05:49;213.43;;;203.20;;
11269;SDS011;5692;48.956;9.200;2022-10-28T12:14:02;223.70;;;213.00;;
11269;SDS011;5692;48.956;9.200;2022-10-28T12:16:39;264.88;;;252.20;;
11269;SDS011;5692;48.956;9.200;2022-10-28T12:19:22;241.65;;;230.10;;
11269;SDS011;5692;48.956;9.200;2022-10-28T12:22:11;254.73;;;242.55;;
11269;SDS011;5692;48.956;9.200;2022-10-28T12:24:38;268.65;;;255.80;;
11269;SDS011;5692;48.956;9.200;2022-10-28T12:27:09;268.45;;;255.65;;
11269;SDS011;5692;48.956;9.200;2022-10-28T12:29:37;260.33;;;247.88;;
11269;SDS011;5692;48.956;9.200;2022-10-28T12:32:07;283.75;;;270.20;;
11269;SDS011;5692;48.956;9.200;2022-10-28T12:37:28;303.33;;;288.83;;
11269;SDS011;5692;48.956;9.200;2022-10-28T12:39:59;310.25;;;295.45;;
11269;SDS011;5692;48.956;9.200;2022-10-28T12:42:34;287.92;;;274.17;;
11269;SDS011;5692;48.956;9.200;2022-10-28T12:45:03;277.40;;;264.13;;
11269;SDS011;5692;48.956;9.200;2022-10-28T12:47:37;34.10;;;31.38;;
11269;SDS011;5692;48.956;9.200;2022-10-28T12:50:10;107.30;;;102.17;;
11269;SDS011;5692;48.956;9.200;2022-10-28T12:55:25;149.77;;;142.57;;
11269;SDS011;5692;48.956;9.200;2022-10-28T13:00:41;221.83;;;211.23;;
11269;SDS011;5692;48.956;9.200;2022-10-28T13:03:11;8.73;;;2.97;;
11269;SDS011;5692;48.956;9.200;2022-10-28T13:10:45;9.00;;;2.80;;
11269;SDS011;5692;48.956;9.200;2022-10-28T13:13:19;324.80;;;309.30;;
11269;SDS011;5692;48.956;9.200;2022-10-28T13:20:50;298.20;;;283.97;;
11269;SDS011;5692;48.956;9.200;2022-10-28T13:23:37;287.20;;;273.50;;
11269;SDS011;5692;48.956;9.200;2022-10-28T13:28:45;280.70;;;267.27;;
11269;SDS011;5692;48.956;9.200;2022-10-28T13:31:16;291.30;;;277.40;;
11269;SDS011;5692;48.956;9.200;2022-10-28T13:33:53;311.03;;;296.17;;
11269;SDS011;5692;48.956;9.200;2022-10-28T13:36:29;304.03;;;289.53;;
11269;SDS011;5692;48.956;9.200;2022-10-28T13:39:00;268.27;;;255.47;;
11269;SDS011;5692;48.956;9.200;2022-10-28T13:57:11;258.05;;;245.70;;
11269;SDS011;5692;48.956;9.200;2022-10-28T13:59:45;270.53;;;257.63;;
11269;SDS011;5692;48.956;9.200;2022-10-28T14:05:08;259.23;;;246.83;;
11269;SDS011;5692;48.956;9.200;2022-10-28T14:07:35;265.47;;;252.77;;
11269;SDS011;5692;48.956;9.200;2022-10-28T14:12:50;264.77;;;252.10;;
11269;SDS011;5692;48.956;9.200;2022-10-28T14:15:38;231.37;;;220.27;;
11269;SDS011;5692;48.956;9.200;2022-10-28T14:18:06;253.27;;;241.13;;
11269;SDS011;5692;48.956;9.200;2022-10-28T14:39:06;262.33;;;249.77;;
11269;SDS011;5692;48.956;9.200;2022-10-28T14:49:23;264.53;;;251.90;;
11269;SDS011;5692;48.956;9.200;2022-10-28T14:51:50;251.98;;;239.93;;
11269;SDS011;5692;48.956;9.200;2022-10-28T14:54:25;242.40;;;230.80;;
11269;SDS011;5692;48.956;9.200;2022-10-28T14:56:54;246.18;;;234.38;;
11269;SDS011;5692;48.956;9.200;2022-10-28T15:04:16;246.55;;;234.75;;
11269;SDS011;5692;48.956;9.200;2022-10-28T15:06:43;253.88;;;241.75;;
11269;SDS011;5692;48.956;9.200;2022-10-28T15:11:48;232.77;;;221.65;;
11269;SDS011;5692;48.956;9.200;2022-10-28T15:14:22;234.38;;;223.18;;
11269;SDS011;5692;48.956;9.200;2022-10-28T15:16:49;218.68;;;208.20;;
11269;SDS011;5692;48.956;9.200;2022-10-28T15:19:19;205.68;;;195.82;;
11269;SDS011;5692;48.956;9.200;2022-10-28T15:21:58;239.52;;;228.07;;
11269;SDS011;5692;48.956;9.200;2022-10-28T15:24:27;235.88;;;224.57;;
11269;SDS011;5692;48.956;9.200;2022-10-28T15:26:54;216.73;;;206.38;;
11269;SDS011;5692;48.956;9.200;2022-10-28T15:29:20;211.30;;;201.20;;
11269;SDS011;5692;48.956;9.200;2022-10-28T15:38:51;200.23;;;190.63;;
11269;SDS011;5692;48.956;9.200;2022-10-28T15:40:58;214.57;;;204.30;;
11269;SDS011;5692;48.956;9.200;2022-10-28T15:43:28;220.13;;;209.63;;
11269;SDS011;5692;48.956;9.200;2022-10-28T15:46:10;201.15;;;191.52;;
11269;SDS011;5692;48.956;9.200;2022-10-28T15:48:55;214.75;;;204.45;;
11269;SDS011;5692;48.956;9.200;2022-10-28T15:51:25;209.00;;;199.00;;
11269;SDS011;5692;48.956;9.200;2022-10-28T15:54:10;183.60;;;174.80;;
11269;SDS011;5692;48.956;9.200;2022-10-28T15:56:53;214.80;;;204.52;;
11269;SDS011;5692;48.956;9.200;2022-10-28T15:59:22;204.02;;;194.25;;
11269;SDS011;5692;48.956;9.200;2022-10-28T16:01:49;212.88;;;202.70;;
11269;SDS011;5692;48.956;9.200;2022-10-28T16:06:45;207.70;;;197.77;;
11269;SDS011;5692;48.956;9.200;2022-10-28T16:09:27;204.50;;;194.70;;
11269;SDS011;5692;48.956;9.200;2022-10-28T16:12:17;202.40;;;192.70;;
11269;SDS011;5692;48.956;9.200;2022-10-28T16:14:55;200.90;;;191.25;;
11269;SDS011;5692;48.956;9.200;2022-10-28T16:17:22;187.98;;;178.98;;
11269;SDS011;5692;48.956;9.200;2022-10-28T16:22:20;191.48;;;182.27;;
11269;SDS011;5692;48.956;9.200;2022-10-28T16:24:46;196.25;;;186.85;;
11269;SDS011;5692;48.956;9.200;2022-10-28T16:29:42;203.38;;;193.63;;
11269;SDS011;5692;48.956;9.200;2022-10-28T16:32:16;195.95;;;186.55;;
11269;SDS011;5692;48.956;9.200;2022-10-28T16:34:45;191.13;;;181.98;;
11269;SDS011;5692;48.956;9.200;2022-10-28T16:37:23;193.30;;;184.02;;
11269;SDS011;5692;48.956;9.200;2022-10-28T16:39:53;196.80;;;187.38;;
11269;SDS011;5692;48.956;9.200;2022-10-28T16:42:20;198.30;;;188.80;;
11269;SDS011;5692;48.956;9.200;2022-10-28T16:44:46;191.68;;;182.48;;
11269;SDS011;5692;48.956;9.200;2022-10-28T16:47:17;206.77;;;196.90;;
11269;SDS011;5692;48.956;9.200;2022-10-28T16:49:43;198.13;;;188.63;;
11269;SDS011;5692;48.956;9.200;2022-10-28T16:52:16;205.18;;;195.38;;
11269;SDS011;5692;48.956;9.200;2022-10-28T16:54:47;210.80;;;200.70;;
11269;SDS011;5692;48.956;9.200;2022-10-28T16:57:18;213.90;;;203.65;;
11269;SDS011;5692;48.956;9.200;2022-10-28T16:59:45;203.50;;;193.75;;
11269;SDS011;5692;48.956;9.200;2022-10-28T17:02:18;202.13;;;192.43;;
11269;SDS011;5692;48.956;9.200;2022-10-28T17:04:44;205.32;;;195.52;;
11269;SDS011;5692;48.956;9.200;2022-10-28T17:07:18;194.45;;;185.15;;
11269;SDS011;5692;48.956;9.200;2022-10-28T17:09:44;210.98;;;200.88;;
11269;SDS011;5692;48.956;9.200;2022-10-28T17:12:14;198.82;;;189.32;;
11269;SDS011;5692;48.956;9.200;2022-10-28T17:14:43;199.63;;;190.07;;
11269;SDS011;5692;48.956;9.200;2022-10-28T17:17:09;195.02;;;185.73;;
11269;SDS011;5692;48.956;9.200;2022-10-28T17:19:39;186.68;;;177.75;;
11269;SDS011;5692;48.956;9.200;2022-10-28T17:22:05;188.25;;;179.23;;
11269;SDS011;5692;48.956;9.200;2022-10-28T17:24:32;187.07;;;178.13;;
11269;SDS011;5692;48.956;9.200;2022-10-28T17:27:01;194.23;;;184.93;;
11269;SDS011;5692;48.956;9.200;2022-10-28T17:29:27;199.23;;;189.73;;
11269;SDS011;5692;48.956;9.200;2022-10-28T17:31:53;194.43;;;185.13;;